createdAt,value
2022-10-03T00:00:06.521Z,10.05
2022-10-03T00:00:16.775Z,10.05
2022-10-03T00:00:27.304Z,10.05
2022-10-03T00:00:36.546Z,10.04
2022-10-03T00:00:46.523Z,10.05
2022-10-03T00:00:57.464Z,10.04
2022-10-03T00:01:06.754Z,10.03
2022-10-03T00:01:16.592Z,10.05
2022-10-03T00:01:28.036Z,10.03
2022-10-03T00:01:37.776Z,10.03
2022-10-03T00:01:47.491Z,10.04
2022-10-03T00:01:58.008Z,10.04
2022-10-03T00:02:06.580Z,10.04
2022-10-03T00:02:16.716Z,10.04
2022-10-03T00:02:28.002Z,10.03
2022-10-03T00:02:36.567Z,10.03
2022-10-03T00:02:46.553Z,10.04
2022-10-03T00:02:58.005Z,10.03
2022-10-03T00:03:06.562Z,10.02
2022-10-03T00:03:16.650Z,10.04
2022-10-03T00:03:27.975Z,10.02
2022-10-03T00:03:36.507Z,10.02
2022-10-03T00:03:47.966Z,10.04
2022-10-03T00:03:57.954Z,10.02
2022-10-03T00:04:07.423Z,10.03
2022-10-03T00:04:17.955Z,10.04
2022-10-03T00:04:27.967Z,10.02
2022-10-03T00:04:37.957Z,10.01
2022-10-03T00:04:47.949Z,10.01
2022-10-03T00:04:57.947Z,10.02
2022-10-03T00:05:07.955Z,10.02
2022-10-03T00:05:17.942Z,10.01
2022-10-03T00:05:27.945Z,10.01
2022-10-03T00:05:37.940Z,10.01
2022-10-03T00:05:47.967Z,10.01
2022-10-03T00:05:56.495Z,10.02
2022-10-03T00:06:06.495Z,10.03
2022-10-03T00:06:17.494Z,10.02
2022-10-03T00:06:27.940Z,10.01
2022-10-03T00:06:37.435Z,10.02
2022-10-03T00:06:46.477Z,10.02
2022-10-03T00:06:56.495Z,10.03
2022-10-03T00:07:07.942Z,10.03
2022-10-03T00:07:17.947Z,10.02
2022-10-03T00:07:26.478Z,10.02
2022-10-03T00:07:37.938Z,10.04
2022-10-03T00:07:46.485Z,10.02
2022-10-03T00:07:56.495Z,10.04
2022-10-03T00:08:07.928Z,10.03
2022-10-03T00:08:17.936Z,10.02
2022-10-03T00:08:27.936Z,10.03
2022-10-03T00:08:36.489Z,10.03
2022-10-03T00:08:46.476Z,10.04
2022-10-03T00:08:57.969Z,10.04
2022-10-03T00:09:06.476Z,10.03
2022-10-03T00:09:17.437Z,10.04
2022-10-03T00:09:27.917Z,10.03
2022-10-03T00:09:37.916Z,10.03
2022-10-03T00:09:47.908Z,10.05
2022-10-03T00:09:57.925Z,10.04
2022-10-03T00:10:06.446Z,10.04
2022-10-03T00:10:17.906Z,10.04
2022-10-03T00:10:27.895Z,10.03
2022-10-03T00:10:36.706Z,10.03
2022-10-03T00:10:46.458Z,10.04
2022-10-03T00:10:56.527Z,10.03
2022-10-03T00:11:06.437Z,10.02
2022-10-03T00:11:16.474Z,10.01
2022-10-03T00:11:27.913Z,10.00
2022-10-03T00:11:36.885Z,9.98
2022-10-03T00:11:46.466Z,9.99
2022-10-03T00:11:57.918Z,9.99
2022-10-03T00:12:06.446Z,9.98
2022-10-03T00:12:17.398Z,9.99
2022-10-03T00:12:27.903Z,9.98
2022-10-03T00:12:37.907Z,9.98
2022-10-03T00:12:46.454Z,9.98
2022-10-03T00:12:56.489Z,9.99
2022-10-03T00:13:07.914Z,9.98
2022-10-03T00:13:16.665Z,9.96
2022-10-03T00:13:27.287Z,9.98
2022-10-03T00:13:36.478Z,9.97
2022-10-03T00:13:47.898Z,9.97
2022-10-03T00:13:58.036Z,9.96
2022-10-03T00:14:07.389Z,9.95
2022-10-03T00:14:17.397Z,9.95
2022-10-03T00:14:27.889Z,9.94
2022-10-03T00:14:37.877Z,9.94
2022-10-03T00:14:46.427Z,9.93
2022-10-03T00:14:57.899Z,9.95
2022-10-03T00:15:07.879Z,9.93
2022-10-03T00:15:17.888Z,9.93
2022-10-03T00:15:27.878Z,9.92
2022-10-03T00:15:37.917Z,9.92
2022-10-03T00:15:46.982Z,9.92
2022-10-03T00:15:57.941Z,9.94
2022-10-03T00:16:07.935Z,9.93
2022-10-03T00:16:16.445Z,9.94
2022-10-03T00:16:26.486Z,9.95
2022-10-03T00:16:36.458Z,9.94
2022-10-03T00:16:46.411Z,9.93
2022-10-03T00:16:57.872Z,9.93
2022-10-03T00:17:07.859Z,9.92
2022-10-03T00:17:16.408Z,9.93
2022-10-03T00:17:27.419Z,9.94
2022-10-03T00:17:37.868Z,9.93
2022-10-03T00:17:47.858Z,9.93
2022-10-03T00:17:57.108Z,9.94
2022-10-03T00:18:07.870Z,9.94
2022-10-03T00:18:16.408Z,9.94
2022-10-03T00:18:27.870Z,9.94
2022-10-03T00:18:37.858Z,9.93
2022-10-03T00:18:47.850Z,9.93
2022-10-03T00:18:56.412Z,9.93
2022-10-03T00:19:07.858Z,9.93
2022-10-03T00:19:16.408Z,9.92
2022-10-03T00:19:26.414Z,9.93
2022-10-03T00:19:37.851Z,9.92
2022-10-03T00:19:47.847Z,9.90
2022-10-03T00:19:56.539Z,9.89
2022-10-03T00:20:07.329Z,9.90
2022-10-03T00:20:17.838Z,9.89
2022-10-03T00:20:27.838Z,9.90
2022-10-03T00:20:37.838Z,9.89
2022-10-03T00:20:47.852Z,9.89
2022-10-03T00:20:57.155Z,9.89
2022-10-03T00:21:07.819Z,9.89
2022-10-03T00:21:16.392Z,9.88
2022-10-03T00:21:26.388Z,9.89
2022-10-03T00:21:36.672Z,9.89
2022-10-03T00:21:46.768Z,9.88
2022-10-03T00:21:56.379Z,9.88
2022-10-03T00:22:06.729Z,9.88
2022-10-03T00:22:16.389Z,9.88
2022-10-03T00:22:26.372Z,9.88
2022-10-03T00:22:37.837Z,9.88
2022-10-03T00:22:47.819Z,9.86
2022-10-03T00:22:56.473Z,9.87
2022-10-03T00:23:07.819Z,9.88
2022-10-03T00:23:17.839Z,9.87
2022-10-03T00:23:27.812Z,9.86
2022-10-03T00:23:37.842Z,9.86
2022-10-03T00:23:46.371Z,9.85
2022-10-03T00:23:57.830Z,9.85
2022-10-03T00:24:06.389Z,9.82
2022-10-03T00:24:17.827Z,9.83
2022-10-03T00:24:26.369Z,9.82
2022-10-03T00:24:37.841Z,9.82
2022-10-03T00:24:46.370Z,9.80
2022-10-03T00:24:56.379Z,9.81
2022-10-03T00:25:07.821Z,9.80
2022-10-03T00:25:16.367Z,9.80
2022-10-03T00:25:27.810Z,9.81
2022-10-03T00:25:37.361Z,9.79
2022-10-03T00:25:46.459Z,9.80
2022-10-03T00:25:56.369Z,9.80
2022-10-03T00:26:07.799Z,9.79
2022-10-03T00:26:16.440Z,9.80
2022-10-03T00:26:26.369Z,9.81
2022-10-03T00:26:36.399Z,9.80
2022-10-03T00:26:46.339Z,9.80
2022-10-03T00:26:56.479Z,9.81
2022-10-03T00:27:06.361Z,9.80
2022-10-03T00:27:16.452Z,9.80
2022-10-03T00:27:26.484Z,9.80
2022-10-03T00:27:36.340Z,9.80
2022-10-03T00:27:47.865Z,9.79
2022-10-03T00:27:56.527Z,9.78
2022-10-03T00:28:07.279Z,9.80
2022-10-03T00:28:16.373Z,9.80
2022-10-03T00:28:27.852Z,9.80
2022-10-03T00:28:36.351Z,9.79
2022-10-03T00:28:47.791Z,9.80
2022-10-03T00:28:56.340Z,9.79
2022-10-03T00:29:06.350Z,9.80
2022-10-03T00:29:16.561Z,9.80
2022-10-03T00:29:26.319Z,9.80
2022-10-03T00:29:37.791Z,9.80
2022-10-03T00:29:47.800Z,9.78
2022-10-03T00:29:57.280Z,9.78
2022-10-03T00:30:07.790Z,9.78
2022-10-03T00:30:17.773Z,9.78
2022-10-03T00:30:26.320Z,9.78
2022-10-03T00:30:36.342Z,9.78
2022-10-03T00:30:46.343Z,9.77
2022-10-03T00:30:57.797Z,9.76
2022-10-03T00:31:07.817Z,9.75
2022-10-03T00:31:16.400Z,9.75
2022-10-03T00:31:26.419Z,9.77
2022-10-03T00:31:38.178Z,9.77
2022-10-03T00:31:47.849Z,9.76
2022-10-03T00:31:57.772Z,9.76
2022-10-03T00:32:06.313Z,9.75
2022-10-03T00:32:17.771Z,9.77
2022-10-03T00:32:27.751Z,9.75
2022-10-03T00:32:37.759Z,9.75
2022-10-03T00:32:46.311Z,9.75
2022-10-03T00:32:56.485Z,9.76
2022-10-03T00:33:07.759Z,9.75
2022-10-03T00:33:17.760Z,9.75
2022-10-03T00:33:27.750Z,9.74
2022-10-03T00:33:36.332Z,9.74
2022-10-03T00:33:46.331Z,9.74
2022-10-03T00:33:56.320Z,9.74
2022-10-03T00:34:06.459Z,9.74
2022-10-03T00:34:16.285Z,9.74
2022-10-03T00:34:26.323Z,9.74
2022-10-03T00:34:37.752Z,9.75
2022-10-03T00:34:47.254Z,9.74
2022-10-03T00:34:56.313Z,9.75
2022-10-03T00:35:07.761Z,9.75
2022-10-03T00:35:17.745Z,9.74
2022-10-03T00:35:27.743Z,9.75
2022-10-03T00:35:37.732Z,9.74
2022-10-03T00:35:47.743Z,9.75
2022-10-03T00:35:57.755Z,9.75
2022-10-03T00:36:07.740Z,9.75
2022-10-03T00:36:16.619Z,9.74
2022-10-03T00:36:26.652Z,9.75
2022-10-03T00:36:36.322Z,9.75
2022-10-03T00:36:46.352Z,9.75
2022-10-03T00:36:56.644Z,9.74
2022-10-03T00:37:07.734Z,9.74
2022-10-03T00:37:17.053Z,9.74
2022-10-03T00:37:26.291Z,9.75
2022-10-03T00:37:36.330Z,9.74
2022-10-03T00:37:46.723Z,9.74
2022-10-03T00:37:57.222Z,9.74
2022-10-03T00:38:07.222Z,9.73
2022-10-03T00:38:16.832Z,9.74
2022-10-03T00:38:26.762Z,9.73
2022-10-03T00:38:37.760Z,9.72
2022-10-03T00:38:47.723Z,9.72
2022-10-03T00:38:56.283Z,9.72
2022-10-03T00:39:06.293Z,9.73
2022-10-03T00:39:16.832Z,9.72
2022-10-03T00:39:26.873Z,9.72
2022-10-03T00:39:36.583Z,9.73
2022-10-03T00:39:46.263Z,9.73
2022-10-03T00:39:56.873Z,9.73
2022-10-03T00:40:07.712Z,9.72
2022-10-03T00:40:16.944Z,9.72
2022-10-03T00:40:26.983Z,9.73
2022-10-03T00:40:37.245Z,9.73
2022-10-03T00:40:47.693Z,9.72
2022-10-03T00:40:56.982Z,9.71
2022-10-03T00:41:07.707Z,9.72
2022-10-03T00:41:17.704Z,9.71
2022-10-03T00:41:27.160Z,9.72
2022-10-03T00:41:36.825Z,9.72
2022-10-03T00:41:46.266Z,9.71
2022-10-03T00:41:56.993Z,9.72
2022-10-03T00:42:06.234Z,9.72
2022-10-03T00:42:17.694Z,9.73
2022-10-03T00:42:27.695Z,9.70
2022-10-03T00:42:36.235Z,9.71
2022-10-03T00:42:47.034Z,9.72
2022-10-03T00:42:57.703Z,9.71
2022-10-03T00:43:06.241Z,9.71
2022-10-03T00:43:17.711Z,9.73
2022-10-03T00:43:26.233Z,9.72
2022-10-03T00:43:37.703Z,9.73
2022-10-03T00:43:46.244Z,9.71
2022-10-03T00:43:57.674Z,9.73
2022-10-03T00:44:07.164Z,9.72
2022-10-03T00:44:16.244Z,9.73
2022-10-03T00:44:27.684Z,9.73
2022-10-03T00:44:37.676Z,9.73
2022-10-03T00:44:46.243Z,9.73
2022-10-03T00:44:57.683Z,9.74
2022-10-03T00:45:07.684Z,9.73
2022-10-03T00:45:16.365Z,9.74
2022-10-03T00:45:26.216Z,9.74
2022-10-03T00:45:36.274Z,9.73
2022-10-03T00:45:46.212Z,9.73
2022-10-03T00:45:56.232Z,9.73
2022-10-03T00:46:06.264Z,9.74
2022-10-03T00:46:16.451Z,9.74
2022-10-03T00:46:26.295Z,9.74
2022-10-03T00:46:37.664Z,9.73
2022-10-03T00:46:46.254Z,9.74
2022-10-03T00:46:57.667Z,9.75
2022-10-03T00:47:06.225Z,9.74
2022-10-03T00:47:16.215Z,9.75
2022-10-03T00:47:27.095Z,9.75
2022-10-03T00:47:37.654Z,9.74
2022-10-03T00:47:47.658Z,9.74
2022-10-03T00:47:56.225Z,9.74
2022-10-03T00:48:06.208Z,9.74
2022-10-03T00:48:16.225Z,9.75
2022-10-03T00:48:27.665Z,9.74
2022-10-03T00:48:37.644Z,9.72
2022-10-03T00:48:47.655Z,9.74
2022-10-03T00:48:57.634Z,9.74
2022-10-03T00:49:06.265Z,9.74
2022-10-03T00:49:17.661Z,9.75
2022-10-03T00:49:26.196Z,9.75
2022-10-03T00:49:36.234Z,9.75
2022-10-03T00:49:46.494Z,9.75
2022-10-03T00:49:57.140Z,9.74
2022-10-03T00:50:06.195Z,9.74
2022-10-03T00:50:16.203Z,9.75
2022-10-03T00:50:27.637Z,9.75
2022-10-03T00:50:37.637Z,9.73
2022-10-03T00:50:46.187Z,9.74
2022-10-03T00:50:56.224Z,9.75
2022-10-03T00:51:06.176Z,9.74
2022-10-03T00:51:17.626Z,9.75
2022-10-03T00:51:26.167Z,9.74
2022-10-03T00:51:36.334Z,9.76
2022-10-03T00:51:46.176Z,9.75
2022-10-03T00:51:57.635Z,9.75
2022-10-03T00:52:06.167Z,9.74
2022-10-03T00:52:17.646Z,9.75
2022-10-03T00:52:26.194Z,9.74
2022-10-03T00:52:37.864Z,9.76
2022-10-03T00:52:47.607Z,9.75
2022-10-03T00:52:56.166Z,9.75
2022-10-03T00:53:07.128Z,9.77
2022-10-03T00:53:16.323Z,9.74
2022-10-03T00:53:26.246Z,9.75
2022-10-03T00:53:36.145Z,9.75
2022-10-03T00:53:47.127Z,9.76
2022-10-03T00:53:57.132Z,9.75
2022-10-03T00:54:06.165Z,9.75
2022-10-03T00:54:16.173Z,9.77
2022-10-03T00:54:26.176Z,9.76
2022-10-03T00:54:36.286Z,9.75
2022-10-03T00:54:46.327Z,9.75
2022-10-03T00:54:56.257Z,9.75
2022-10-03T00:55:06.300Z,9.74
2022-10-03T00:55:16.340Z,9.74
2022-10-03T00:55:26.373Z,9.73
2022-10-03T00:55:36.137Z,9.73
2022-10-03T00:55:46.167Z,9.74
2022-10-03T00:55:56.368Z,9.73
2022-10-03T00:56:06.136Z,9.75
2022-10-03T00:56:16.160Z,9.73
2022-10-03T00:56:26.412Z,9.74
2022-10-03T00:56:36.136Z,9.73
2022-10-03T00:56:47.598Z,9.74
2022-10-03T00:56:57.099Z,9.73
2022-10-03T00:57:06.147Z,9.74
2022-10-03T00:57:16.157Z,9.75
2022-10-03T00:57:26.148Z,9.74
2022-10-03T00:57:36.157Z,9.75
2022-10-03T00:57:46.150Z,9.75
2022-10-03T00:57:57.606Z,9.75
2022-10-03T00:58:07.097Z,9.75
2022-10-03T00:58:17.596Z,9.75
2022-10-03T00:58:26.138Z,9.74
2022-10-03T00:58:36.150Z,9.75
2022-10-03T00:58:46.137Z,9.74
2022-10-03T00:58:57.601Z,9.74
2022-10-03T00:59:06.798Z,9.73
2022-10-03T00:59:16.985Z,9.74
2022-10-03T00:59:27.591Z,9.73
2022-10-03T00:59:37.572Z,9.74
2022-10-03T00:59:48.272Z,9.73
2022-10-03T00:59:57.567Z,9.73
2022-10-03T01:00:07.568Z,9.74
2022-10-03T01:00:17.567Z,9.73
2022-10-03T01:00:26.128Z,9.74
2022-10-03T01:00:37.609Z,9.76
2022-10-03T01:00:46.143Z,9.75
2022-10-03T01:00:57.599Z,9.77
2022-10-03T01:01:07.110Z,9.75
2022-10-03T01:01:16.170Z,9.76
2022-10-03T01:01:27.670Z,9.76
2022-10-03T01:01:37.383Z,9.75
2022-10-03T01:01:46.145Z,9.77
2022-10-03T01:01:57.706Z,9.77
2022-10-03T01:02:06.127Z,9.77
2022-10-03T01:02:17.595Z,9.77
2022-10-03T01:02:27.655Z,9.77
2022-10-03T01:02:37.036Z,9.77
2022-10-03T01:02:47.550Z,9.77
2022-10-03T01:02:56.108Z,9.76
2022-10-03T01:03:06.128Z,9.76
2022-10-03T01:03:17.567Z,9.75
2022-10-03T01:03:27.588Z,9.74
2022-10-03T01:03:37.083Z,9.74
2022-10-03T01:03:47.546Z,9.74
2022-10-03T01:03:57.538Z,9.73
2022-10-03T01:04:07.029Z,9.72
2022-10-03T01:04:17.538Z,9.72
2022-10-03T01:04:27.558Z,9.72
2022-10-03T01:04:36.979Z,9.72
2022-10-03T01:04:46.227Z,9.72
2022-10-03T01:04:57.528Z,9.72
2022-10-03T01:05:06.110Z,9.69
2022-10-03T01:05:17.539Z,9.71
2022-10-03T01:05:26.079Z,9.70
2022-10-03T01:05:36.888Z,9.71
2022-10-03T01:05:46.088Z,9.70
2022-10-03T01:05:57.567Z,9.71
2022-10-03T01:06:06.088Z,9.69
2022-10-03T01:06:17.521Z,9.71
2022-10-03T01:06:27.519Z,9.70
2022-10-03T01:06:37.528Z,9.68
2022-10-03T01:06:47.522Z,9.69
2022-10-03T01:06:56.086Z,9.69
2022-10-03T01:07:07.526Z,9.71
2022-10-03T01:07:17.638Z,9.69
2022-10-03T01:07:27.030Z,9.69
2022-10-03T01:07:37.519Z,9.69
2022-10-03T01:07:46.089Z,9.68
2022-10-03T01:07:56.080Z,9.68
2022-10-03T01:08:07.527Z,9.68
2022-10-03T01:08:17.563Z,9.67
2022-10-03T01:08:27.510Z,9.67
2022-10-03T01:08:36.857Z,9.67
2022-10-03T01:08:46.059Z,9.68
2022-10-03T01:08:57.510Z,9.68
2022-10-03T01:09:06.070Z,9.67
2022-10-03T01:09:16.049Z,9.68
2022-10-03T01:09:27.037Z,9.68
2022-10-03T01:09:37.530Z,9.67
2022-10-03T01:09:46.055Z,9.67
2022-10-03T01:09:57.527Z,9.68
2022-10-03T01:10:06.050Z,9.68
2022-10-03T01:10:16.060Z,9.69
2022-10-03T01:10:27.500Z,9.68
2022-10-03T01:10:37.495Z,9.68
2022-10-03T01:10:47.490Z,9.69
2022-10-03T01:10:56.061Z,9.68
2022-10-03T01:11:06.870Z,9.68
2022-10-03T01:11:16.056Z,9.66
2022-10-03T01:11:27.514Z,9.68
2022-10-03T01:11:37.863Z,9.66
2022-10-03T01:11:47.501Z,9.67
2022-10-03T01:11:57.490Z,9.67
2022-10-03T01:12:06.030Z,9.67
2022-10-03T01:12:17.507Z,9.68
2022-10-03T01:12:27.000Z,9.66
2022-10-03T01:12:36.040Z,9.66
2022-10-03T01:12:46.041Z,9.67
2022-10-03T01:12:56.051Z,9.66
2022-10-03T01:13:07.039Z,9.65
2022-10-03T01:13:16.121Z,9.66
2022-10-03T01:13:26.983Z,9.66
2022-10-03T01:13:40.479Z,9.65
2022-10-03T01:13:52.352Z,9.61
2022-10-03T01:13:59.175Z,9.59
2022-10-03T01:14:09.120Z,9.62
2022-10-03T01:14:17.684Z,9.63
2022-10-03T01:14:28.600Z,9.65
2022-10-03T01:14:37.691Z,9.62
2022-10-03T01:14:47.681Z,9.63
2022-10-03T01:14:57.724Z,9.63
2022-10-03T01:15:07.761Z,9.63
2022-10-03T01:15:17.667Z,9.63
2022-10-03T01:15:27.730Z,9.64
2022-10-03T01:15:37.661Z,9.62
2022-10-03T01:15:47.849Z,9.63
2022-10-03T01:15:57.948Z,9.63
2022-10-03T01:16:07.812Z,9.62
2022-10-03T01:16:17.859Z,9.63
2022-10-03T01:16:27.867Z,9.61
2022-10-03T01:16:37.773Z,9.62
2022-10-03T01:16:47.802Z,9.62
2022-10-03T01:16:57.844Z,9.61
2022-10-03T01:17:07.872Z,9.62
2022-10-03T01:17:17.811Z,9.62
2022-10-03T01:17:27.841Z,9.63
2022-10-03T01:17:37.651Z,9.63
2022-10-03T01:17:47.913Z,9.63
2022-10-03T01:17:57.641Z,9.63
2022-10-03T01:18:07.902Z,9.62
2022-10-03T01:18:17.662Z,9.62
2022-10-03T01:18:27.952Z,9.62
2022-10-03T01:18:37.687Z,9.61
2022-10-03T01:18:49.080Z,9.61
2022-10-03T01:18:57.652Z,9.60
2022-10-03T01:19:07.990Z,9.61
2022-10-03T01:19:19.090Z,9.61
2022-10-03T01:19:27.641Z,9.59
2022-10-03T01:19:39.101Z,9.59
2022-10-03T01:19:47.641Z,9.56
2022-10-03T01:19:57.653Z,9.57
2022-10-03T01:20:08.572Z,9.57
2022-10-03T01:20:19.117Z,9.56
2022-10-03T01:20:27.646Z,9.55
2022-10-03T01:20:39.112Z,9.56
2022-10-03T01:20:48.592Z,9.55
2022-10-03T01:20:59.083Z,9.55
2022-10-03T01:21:09.083Z,9.55
2022-10-03T01:21:19.073Z,9.55
2022-10-03T01:21:29.082Z,9.55
2022-10-03T01:21:38.058Z,9.55
2022-10-03T01:21:49.063Z,9.55
2022-10-03T01:21:58.396Z,9.55
2022-10-03T01:22:09.163Z,9.56
2022-10-03T01:22:19.112Z,9.55
2022-10-03T01:22:28.602Z,9.54
2022-10-03T01:22:39.073Z,9.55
2022-10-03T01:22:49.092Z,9.55
2022-10-03T01:22:57.624Z,9.54
2022-10-03T01:23:09.068Z,9.55
2022-10-03T01:23:17.642Z,9.54
2022-10-03T01:23:28.502Z,9.55
2022-10-03T01:23:39.073Z,9.53
2022-10-03T01:23:49.063Z,9.52
2022-10-03T01:23:57.625Z,9.52
2022-10-03T01:24:07.704Z,9.53
2022-10-03T01:24:18.123Z,9.52
2022-10-03T01:24:28.403Z,9.50
2022-10-03T01:24:39.074Z,9.49
2022-10-03T01:24:49.046Z,9.49
2022-10-03T01:24:57.615Z,9.49
2022-10-03T01:25:08.353Z,9.50
2022-10-03T01:25:19.054Z,9.49
2022-10-03T01:25:28.570Z,9.48
2022-10-03T01:25:39.043Z,9.49
2022-10-03T01:25:49.053Z,9.49
2022-10-03T01:26:10.594Z,9.45
2022-10-03T01:26:18.540Z,9.47
2022-10-03T01:26:28.300Z,9.49
2022-10-03T01:26:38.267Z,9.48
2022-10-03T01:26:48.281Z,9.48
2022-10-03T01:26:59.714Z,9.46
2022-10-03T01:27:09.760Z,9.45
2022-10-03T01:27:18.289Z,9.45
2022-10-03T01:27:28.312Z,9.46
2022-10-03T01:27:38.351Z,9.46
2022-10-03T01:27:48.402Z,9.46
2022-10-03T01:27:58.348Z,9.46
2022-10-03T01:28:08.404Z,9.46
2022-10-03T01:28:18.479Z,9.46
2022-10-03T01:28:28.276Z,9.46
2022-10-03T01:28:38.270Z,9.46
2022-10-03T01:28:48.390Z,9.47
2022-10-03T01:28:58.941Z,9.46
2022-10-03T01:29:08.282Z,9.46
2022-10-03T01:29:19.226Z,9.46
2022-10-03T01:29:28.263Z,9.46
2022-10-03T01:29:39.711Z,9.45
2022-10-03T01:29:49.704Z,9.43
2022-10-03T01:29:59.214Z,9.44
2022-10-03T01:30:09.712Z,9.43
2022-10-03T01:30:18.260Z,9.43
2022-10-03T01:30:28.261Z,9.44
2022-10-03T01:30:39.250Z,9.44
2022-10-03T01:30:49.934Z,9.43
2022-10-03T01:30:58.318Z,9.43
2022-10-03T01:31:08.315Z,9.45
2022-10-03T01:31:19.250Z,9.44
2022-10-03T01:31:29.727Z,9.43
2022-10-03T01:31:39.477Z,9.43
2022-10-03T01:31:48.274Z,9.43
2022-10-03T01:31:59.692Z,9.44
2022-10-03T01:32:08.231Z,9.42
2022-10-03T01:32:18.251Z,9.43
2022-10-03T01:32:28.260Z,9.44
2022-10-03T01:32:39.703Z,9.44
2022-10-03T01:32:49.192Z,9.43
2022-10-03T01:32:58.241Z,9.43
2022-10-03T01:33:09.681Z,9.43
2022-10-03T01:33:18.252Z,9.42
2022-10-03T01:33:29.703Z,9.44
2022-10-03T01:33:38.881Z,9.41
2022-10-03T01:33:49.049Z,9.42
2022-10-03T01:33:58.461Z,9.41
2022-10-03T01:34:08.212Z,9.40
2022-10-03T01:34:18.232Z,9.39
2022-10-03T01:34:28.220Z,9.38
2022-10-03T01:34:39.772Z,9.37
2022-10-03T01:34:48.213Z,9.36
2022-10-03T01:34:58.232Z,9.37
2022-10-03T01:35:08.424Z,9.36
2022-10-03T01:35:19.653Z,9.36
2022-10-03T01:35:29.228Z,9.36
2022-10-03T01:35:39.669Z,9.36
2022-10-03T01:35:48.192Z,9.36
2022-10-03T01:35:58.244Z,9.37
2022-10-03T01:36:09.653Z,9.36
2022-10-03T01:36:19.652Z,9.36
2022-10-03T01:36:29.642Z,9.35
2022-10-03T01:36:38.203Z,9.35
2022-10-03T01:36:49.016Z,9.36
2022-10-03T01:36:58.643Z,9.33
2022-10-03T01:37:09.656Z,9.33
2022-10-03T01:37:18.203Z,9.31
2022-10-03T01:37:29.662Z,9.33
2022-10-03T01:37:39.653Z,9.31
2022-10-03T01:37:48.203Z,9.31
2022-10-03T01:37:58.203Z,9.32
2022-10-03T01:38:08.232Z,9.30
2022-10-03T01:38:18.204Z,9.31
2022-10-03T01:38:28.870Z,9.31
2022-10-03T01:38:39.634Z,9.30
2022-10-03T01:38:49.623Z,9.29
2022-10-03T01:38:58.804Z,9.30
2022-10-03T01:39:09.043Z,9.30
2022-10-03T01:39:18.294Z,9.30
2022-10-03T01:39:29.614Z,9.30
2022-10-03T01:39:38.845Z,9.29
2022-10-03T01:39:49.614Z,9.30
2022-10-03T01:39:59.653Z,9.30
2022-10-03T01:40:09.633Z,9.29
2022-10-03T01:40:18.175Z,9.30
2022-10-03T01:40:29.637Z,9.31
2022-10-03T01:40:39.624Z,9.31
2022-10-03T01:40:48.174Z,9.30
2022-10-03T01:40:59.635Z,9.32
2022-10-03T01:41:08.953Z,9.31
2022-10-03T01:41:19.606Z,9.31
2022-10-03T01:41:29.617Z,9.30
2022-10-03T01:41:39.419Z,9.30
2022-10-03T01:41:49.624Z,9.30
2022-10-03T01:41:58.209Z,9.31
2022-10-03T01:42:09.595Z,9.32
2022-10-03T01:42:19.615Z,9.31
2022-10-03T01:42:28.984Z,9.32
2022-10-03T01:42:38.172Z,9.32
2022-10-03T01:42:49.639Z,9.33
2022-10-03T01:42:59.615Z,9.32
2022-10-03T01:43:08.164Z,9.31
2022-10-03T01:43:19.164Z,9.29
2022-10-03T01:43:28.147Z,9.29
2022-10-03T01:43:38.172Z,9.29
2022-10-03T01:43:48.255Z,9.29
2022-10-03T01:43:58.164Z,9.28
2022-10-03T01:44:08.165Z,9.27
2022-10-03T01:44:19.605Z,9.26
2022-10-03T01:44:28.149Z,9.25
2022-10-03T01:44:39.624Z,9.27
2022-10-03T01:44:49.604Z,9.26
2022-10-03T01:44:58.995Z,9.27
2022-10-03T01:45:09.588Z,9.27
2022-10-03T01:45:19.146Z,9.26
2022-10-03T01:45:29.603Z,9.27
2022-10-03T01:45:38.135Z,9.27
2022-10-03T01:45:51.205Z,9.28
2022-10-03T01:45:58.434Z,9.24
2022-10-03T01:46:10.524Z,9.26
2022-10-03T01:46:19.784Z,9.26
2022-10-03T01:46:29.764Z,9.28
2022-10-03T01:46:39.145Z,9.28
2022-10-03T01:46:49.779Z,9.28
2022-10-03T01:46:59.779Z,9.28
2022-10-03T01:47:09.695Z,9.29
2022-10-03T01:47:18.254Z,9.30
2022-10-03T01:47:28.287Z,9.30
2022-10-03T01:47:38.766Z,9.29
2022-10-03T01:47:48.236Z,9.29
2022-10-03T01:47:59.718Z,9.29
2022-10-03T01:48:08.258Z,9.28
2022-10-03T01:48:18.254Z,9.29
2022-10-03T01:48:29.725Z,9.29
2022-10-03T01:48:39.696Z,9.27
2022-10-03T01:48:49.207Z,9.27
2022-10-03T01:48:58.605Z,9.28
2022-10-03T01:49:08.307Z,9.27
2022-10-03T01:49:19.692Z,9.28
2022-10-03T01:49:29.685Z,9.27
2022-10-03T01:49:39.687Z,9.27
2022-10-03T01:49:49.046Z,9.27
2022-10-03T01:49:59.696Z,9.28
2022-10-03T01:50:08.247Z,9.27
2022-10-03T01:50:19.702Z,9.27
2022-10-03T01:50:28.296Z,9.25
2022-10-03T01:50:39.216Z,9.27
2022-10-03T01:50:49.234Z,9.26
2022-10-03T01:50:59.676Z,9.25
2022-10-03T01:51:08.209Z,9.26
2022-10-03T01:51:19.197Z,9.27
2022-10-03T01:51:28.483Z,9.27
2022-10-03T01:51:39.902Z,9.28
2022-10-03T01:51:49.657Z,9.26
2022-10-03T01:51:58.215Z,9.26
2022-10-03T01:52:08.257Z,9.27
2022-10-03T01:52:19.666Z,9.27
2022-10-03T01:52:28.215Z,9.25
2022-10-03T01:52:39.666Z,9.26
2022-10-03T01:52:49.668Z,9.25
2022-10-03T01:52:58.207Z,9.27
2022-10-03T01:53:09.684Z,9.27
2022-10-03T01:53:18.207Z,9.26
2022-10-03T01:53:29.205Z,9.27
2022-10-03T01:53:38.207Z,9.26
2022-10-03T01:53:49.667Z,9.27
2022-10-03T01:53:59.157Z,9.26
2022-10-03T01:54:09.657Z,9.27
2022-10-03T01:54:19.664Z,9.27
2022-10-03T01:54:28.199Z,9.28
2022-10-03T01:54:38.416Z,9.28
2022-10-03T01:54:48.199Z,9.28
2022-10-03T01:54:58.206Z,9.28
2022-10-03T01:55:08.210Z,9.29
2022-10-03T01:55:19.677Z,9.28
2022-10-03T01:55:28.193Z,9.27
2022-10-03T01:55:38.637Z,9.29
2022-10-03T01:55:48.687Z,9.29
2022-10-03T01:55:58.848Z,9.29
2022-10-03T01:56:08.666Z,9.27
2022-10-03T01:56:18.377Z,9.27
2022-10-03T01:56:28.168Z,9.26
2022-10-03T01:56:38.757Z,9.25
2022-10-03T01:56:48.687Z,9.23
2022-10-03T01:56:58.734Z,9.24
2022-10-03T01:57:08.758Z,9.23
2022-10-03T01:57:18.794Z,9.22
2022-10-03T01:57:28.729Z,9.22
2022-10-03T01:57:38.766Z,9.22
2022-10-03T01:57:48.797Z,9.22
2022-10-03T01:57:58.219Z,9.22
2022-10-03T01:58:08.767Z,9.23
2022-10-03T01:58:18.698Z,9.22
2022-10-03T01:58:29.609Z,9.21
2022-10-03T01:58:38.877Z,9.19
2022-10-03T01:58:48.499Z,9.20
2022-10-03T01:58:58.158Z,9.20
2022-10-03T01:59:09.627Z,9.21
2022-10-03T01:59:18.159Z,9.20
2022-10-03T01:59:28.853Z,9.20
2022-10-03T01:59:39.598Z,9.19
2022-10-03T01:59:48.161Z,9.19
2022-10-03T01:59:58.160Z,9.20
2022-10-03T02:00:08.891Z,9.20
2022-10-03T02:00:19.058Z,9.20
2022-10-03T02:00:29.599Z,9.19
2022-10-03T02:00:38.177Z,9.19
2022-10-03T02:00:48.226Z,9.21
2022-10-03T02:00:59.630Z,9.21
2022-10-03T02:01:08.210Z,9.20
2022-10-03T02:01:19.027Z,9.21
2022-10-03T02:01:28.172Z,9.20
2022-10-03T02:01:39.785Z,9.21
2022-10-03T02:01:48.162Z,9.20
2022-10-03T02:01:59.611Z,9.22
2022-10-03T02:02:09.632Z,9.20
2022-10-03T02:02:18.247Z,9.20
2022-10-03T02:02:29.679Z,9.22
2022-10-03T02:02:38.159Z,9.20
2022-10-03T02:02:48.139Z,9.22
2022-10-03T02:02:59.609Z,9.22
2022-10-03T02:03:08.139Z,9.20
2022-10-03T02:03:19.029Z,9.22
2022-10-03T02:03:29.599Z,9.21
2022-10-03T02:03:39.589Z,9.22
2022-10-03T02:03:48.128Z,9.21
2022-10-03T02:03:59.590Z,9.23
2022-10-03T02:04:08.400Z,9.22
2022-10-03T02:04:18.109Z,9.22
2022-10-03T02:04:28.130Z,9.22
2022-10-03T02:04:39.579Z,9.22
2022-10-03T02:04:49.570Z,9.21
2022-10-03T02:04:59.568Z,9.21
2022-10-03T02:05:08.121Z,9.20
2022-10-03T02:05:19.099Z,9.22
2022-10-03T02:05:29.571Z,9.20
2022-10-03T02:05:39.571Z,9.18
2022-10-03T02:05:48.113Z,9.18
2022-10-03T02:05:59.578Z,9.19
2022-10-03T02:06:08.111Z,9.15
2022-10-03T02:06:18.997Z,9.15
2022-10-03T02:06:29.570Z,9.13
2022-10-03T02:06:39.560Z,9.12
2022-10-03T02:06:48.120Z,9.12
2022-10-03T02:06:58.109Z,9.13
2022-10-03T02:07:09.559Z,9.12
2022-10-03T02:07:19.559Z,9.12
2022-10-03T02:07:28.110Z,9.11
2022-10-03T02:07:38.129Z,9.12
2022-10-03T02:07:49.560Z,9.13
2022-10-03T02:07:58.107Z,9.11
2022-10-03T02:08:09.551Z,9.13
2022-10-03T02:08:19.550Z,9.11
2022-10-03T02:08:29.060Z,9.11
2022-10-03T02:08:38.321Z,9.12
2022-10-03T02:08:48.080Z,9.13
2022-10-03T02:08:58.100Z,9.13
2022-10-03T02:09:08.980Z,9.12
2022-10-03T02:09:18.091Z,9.11
2022-10-03T02:09:29.550Z,9.11
2022-10-03T02:09:38.079Z,9.10
2022-10-03T02:09:48.098Z,9.11
2022-10-03T02:09:58.101Z,9.10
2022-10-03T02:10:08.113Z,9.09
2022-10-03T02:10:18.360Z,9.09
2022-10-03T02:10:29.521Z,9.09
2022-10-03T02:10:39.530Z,9.08
2022-10-03T02:10:49.530Z,9.08
2022-10-03T02:10:59.020Z,9.08
2022-10-03T02:11:08.091Z,9.09
2022-10-03T02:11:18.093Z,9.09
2022-10-03T02:11:28.101Z,9.09
2022-10-03T02:11:38.460Z,9.09
2022-10-03T02:11:49.521Z,9.08
2022-10-03T02:11:58.081Z,9.08
2022-10-03T02:12:09.541Z,9.10
2022-10-03T02:12:19.511Z,9.08
2022-10-03T02:12:29.511Z,9.10
2022-10-03T02:12:39.531Z,9.10
2022-10-03T02:12:48.062Z,9.10
2022-10-03T02:12:59.539Z,9.11